PWSweather.com
Personal Weather Stations
Station Observations
INORDPAS37
Bondues, BonduesFR 59910

BonduesBonduesFR 59910

Lat: 50.7, Lon: 3.09

Elevation: 102

Station Type: Netatmo

http://bondues.meteoamikuze.com

High Low Average
Temperature 52.9°F11.6°C 45.9°F7.7°C 49.1°F9.5°C
Dew Point 44.4°F6.9°C 31.5°F-0.3°C 35.9°F2.2°C
Winds 13.6 mph 21.9 kmh 5.6 mph 9.0 kmh 9.0 mph WSW14.5 kmh WSW
Wind Gusts 34.2 mph55.0 kmh 13.0 mph20.9 kmh 20.0 mph32.2 kmh
Humidity 78% 58% 65%
Pressure 29.63 in1003.4 mb 29.26 in990.9 mb -
Precipitation 0.25 in6.4 mm - -
Hour Temp Dew Point Humidity Winds Wind Gusts Pressure Precip Precip Rate Daily Precip Total
12:07 AM 50.0°F10.0°C 41.4°F5.2°C 77% 5.6 mph SW9.0 kmh SW 15.4 mph24.8 kmh 29.47 in998.0 mb 0.00 in0.0 mm 0.03 in0.8 mm 0.00 in0.0 mm
12:23 AM 50.4°F10.2°C 41.5°F5.3°C 77% 5.6 mph SW9.0 kmh SW 21.7 mph34.9 kmh 29.45 in997.3 mb 0.00 in0.0 mm 0.00 in0.0 mm 0.00 in0.0 mm
12:43 AM 50.7°F10.4°C 41.9°F5.5°C 77% 5.6 mph SW9.0 kmh SW 13.6 mph21.9 kmh 29.44 in997.0 mb 0.01 in0.3 mm 0.04 in1.0 mm 0.01 in0.3 mm
01:03 AM 50.5°F10.3°C 41.7°F5.4°C 77% 11.9 mph WSW19.2 kmh WSW 18.6 mph29.9 kmh 29.41 in995.9 mb 0.06 in1.5 mm 0.07 in1.8 mm 0.06 in1.5 mm
01:23 AM 50.5°F10.3°C 41.7°F5.4°C 77% 9.8 mph SW15.8 kmh SW 16.1 mph25.9 kmh 29.37 in994.6 mb 0.08 in2.0 mm 0.07 in1.8 mm 0.08 in2.0 mm
01:42 AM 50.7°F10.4°C 41.9°F5.5°C 77% 9.4 mph SW15.1 kmh SW 16.1 mph25.9 kmh 29.34 in993.6 mb 0.08 in2.0 mm 0.00 in0.0 mm 0.11 in2.8 mm
02:02 AM 51.3°F10.7°C 42.4°F5.8°C 77% 8.1 mph SW13.0 kmh SW 14.3 mph23.0 kmh 29.32 in992.9 mb 0.06 in1.5 mm 0.00 in0.0 mm 0.12 in3.0 mm
02:22 AM 51.8°F11.0°C 43.0°F6.1°C 77% 7.4 mph WSW11.9 kmh WSW 15.0 mph24.1 kmh 29.29 in991.9 mb 0.04 in1.0 mm 0.00 in0.0 mm 0.13 in3.3 mm
02:43 AM 52.3°F11.3°C 43.9°F6.6°C 78% 8.7 mph WSW14.0 kmh WSW 24.2 mph38.9 kmh 29.26 in990.9 mb 0.03 in0.8 mm 0.00 in0.0 mm 0.14 in3.6 mm
03:03 AM 52.5°F11.4°C 43.7°F6.5°C 77% 9.8 mph WSW15.8 kmh WSW 24.8 mph39.9 kmh 29.26 in990.9 mb 0.08 in2.0 mm 0.08 in2.0 mm 0.21 in5.3 mm
03:25 AM 52.9°F11.6°C 44.4°F6.9°C 78% 12.5 mph W20.1 kmh W 28.0 mph45.1 kmh 29.27 in991.2 mb 0.12 in3.0 mm 0.09 in2.3 mm 0.24 in6.1 mm
03:41 AM 52.9°F11.6°C 43.7°F6.5°C 76% 13.6 mph W21.9 kmh W 34.2 mph55.0 kmh 29.28 in991.5 mb 0.10 in2.5 mm 0.00 in0.0 mm 0.24 in6.1 mm
04:01 AM 52.0°F11.1°C 41.7°F5.4°C 73% 9.4 mph W15.1 kmh W 23.7 mph38.1 kmh 29.30 in992.2 mb 0.03 in0.8 mm 0.00 in0.0 mm 0.25 in6.4 mm
04:21 AM 51.6°F10.9°C 40.8°F4.9°C 72% 8.1 mph W13.0 kmh W 15.4 mph24.8 kmh 29.28 in991.5 mb 0.00 in0.0 mm 0.00 in0.0 mm 0.25 in6.4 mm
04:42 AM 51.4°F10.8°C 40.3°F4.6°C 71% 10.5 mph WSW16.9 kmh WSW 21.0 mph33.8 kmh 29.28 in991.5 mb 0.00 in0.0 mm 0.00 in0.0 mm 0.25 in6.4 mm
05:02 AM 51.1°F10.6°C 39.2°F4.0°C 69% 10.5 mph W16.9 kmh W 18.6 mph29.9 kmh 29.28 in991.5 mb 0.00 in0.0 mm 0.00 in0.0 mm 0.25 in6.4 mm
05:23 AM 51.1°F10.6°C 38.1°F3.4°C 66% 11.9 mph WSW19.2 kmh WSW 24.2 mph38.9 kmh 29.27 in991.2 mb 0.00 in0.0 mm 0.00 in0.0 mm 0.25 in6.4 mm
05:55 AM 50.9°F10.5°C 37.9°F3.3°C 66% 9.4 mph WSW15.1 kmh WSW 28.0 mph45.1 kmh 29.26 in990.9 mb 0.00 in0.0 mm 0.00 in0.0 mm 0.25 in6.4 mm
06:15 AM 50.5°F10.3°C 36.7°F2.6°C 64% 9.8 mph W15.8 kmh W 22.4 mph36.0 kmh 29.26 in990.9 mb 0.00 in0.0 mm 0.00 in0.0 mm 0.25 in6.4 mm
06:21 AM 50.0°F10.0°C 35.1°F1.7°C 61% 8.7 mph W14.0 kmh W 21.7 mph34.9 kmh 29.28 in991.5 mb 0.00 in0.0 mm 0.00 in0.0 mm 0.25 in6.4 mm
06:55 AM 49.6°F9.8°C 34.3°F1.3°C 60% 10.5 mph W16.9 kmh W 19.9 mph32.0 kmh 29.28 in991.5 mb 0.00 in0.0 mm 0.00 in0.0 mm 0.25 in6.4 mm
07:03 AM 46.9°F8.3°C 32.9°F0.5°C 63% 8.1 mph W13.0 kmh W 18.1 mph29.1 kmh 29.28 in991.5 mb 0.00 in0.0 mm 0.00 in0.0 mm 0.25 in6.4 mm
07:22 AM 46.0°F7.8°C 32.9°F0.5°C 65% 6.9 mph W11.1 kmh W 16.1 mph25.9 kmh 29.29 in991.9 mb 0.00 in0.0 mm 0.00 in0.0 mm 0.25 in6.4 mm
07:43 AM 45.9°F7.7°C 32.7°F0.4°C 65% 7.4 mph W11.9 kmh W 15.4 mph24.8 kmh 29.31 in992.6 mb 0.00 in0.0 mm 0.00 in0.0 mm 0.25 in6.4 mm
08:05 AM 46.8°F8.2°C 33.6°F0.9°C 65% 8.7 mph W14.0 kmh W 15.0 mph24.1 kmh 29.32 in992.9 mb 0.00 in0.0 mm 0.00 in0.0 mm 0.25 in6.4 mm
08:24 AM 47.1°F8.4°C 32.7°F0.4°C 62% 8.7 mph W14.0 kmh W 19.9 mph32.0 kmh 29.34 in993.6 mb 0.00 in0.0 mm 0.00 in0.0 mm 0.25 in6.4 mm
08:45 AM 46.9°F8.3°C 32.5°F0.3°C 62% 9.4 mph W15.1 kmh W 15.4 mph24.8 kmh 29.36 in994.2 mb 0.00 in0.0 mm 0.00 in0.0 mm 0.25 in6.4 mm
09:05 AM 46.4°F8.0°C 31.6°F-0.2°C 61% 9.8 mph W15.8 kmh W 25.5 mph41.0 kmh 29.37 in994.6 mb 0.00 in0.0 mm 0.00 in0.0 mm 0.25 in6.4 mm
09:24 AM 46.2°F7.9°C 31.8°F-0.1°C 62% 8.1 mph W13.0 kmh W 16.8 mph27.0 kmh 29.38 in994.9 mb 0.00 in0.0 mm 0.00 in0.0 mm 0.25 in6.4 mm
09:45 AM 46.2°F7.9°C 31.5°F-0.3°C 61% 9.4 mph W15.1 kmh W 22.4 mph36.0 kmh 29.39 in995.3 mb 0.00 in0.0 mm 0.00 in0.0 mm 0.25 in6.4 mm
10:07 AM 46.6°F8.1°C 31.8°F-0.1°C 61% 8.1 mph W13.0 kmh W 15.4 mph24.8 kmh 29.40 in995.6 mb 0.00 in0.0 mm 0.00 in0.0 mm 0.25 in6.4 mm
10:28 AM 47.1°F8.4°C 32.4°F0.2°C 61% 10.5 mph WSW16.9 kmh WSW 21.7 mph34.9 kmh 29.41 in995.9 mb 0.00 in0.0 mm 0.00 in0.0 mm 0.25 in6.4 mm
10:48 AM 47.5°F8.6°C 32.0°F0.0°C 59% 10.5 mph W16.9 kmh W 24.8 mph39.9 kmh 29.43 in996.6 mb 0.00 in0.0 mm 0.00 in0.0 mm 0.25 in6.4 mm
11:08 AM 48.0°F8.9°C 32.5°F0.3°C 59% 10.5 mph W16.9 kmh W 23.0 mph37.0 kmh 29.45 in997.3 mb 0.00 in0.0 mm 0.00 in0.0 mm 0.25 in6.4 mm
11:28 AM 48.2°F9.0°C 32.5°F0.3°C 59% 10.5 mph W16.9 kmh W 20.6 mph33.2 kmh 29.47 in998.0 mb 0.00 in0.0 mm 0.00 in0.0 mm 0.25 in6.4 mm
11:49 AM 48.4°F9.1°C 32.7°F0.4°C 59% 10.5 mph W16.9 kmh W 22.4 mph36.0 kmh 29.48 in998.3 mb 0.00 in0.0 mm 0.00 in0.0 mm 0.25 in6.4 mm
12:08 PM 48.6°F9.2°C 32.5°F0.3°C 58% 9.8 mph W15.8 kmh W 24.2 mph38.9 kmh 29.49 in998.6 mb 0.00 in0.0 mm 0.00 in0.0 mm 0.25 in6.4 mm
12:29 PM 48.7°F9.3°C 32.7°F0.4°C 58% 9.4 mph W15.1 kmh W 23.7 mph38.1 kmh 29.50 in999.0 mb 0.00 in0.0 mm 0.00 in0.0 mm 0.25 in6.4 mm
12:55 PM 48.7°F9.3°C 32.7°F0.4°C 58% 9.8 mph W15.8 kmh W 18.6 mph29.9 kmh 29.51 in999.3 mb 0.00 in0.0 mm 0.00 in0.0 mm 0.25 in6.4 mm
01:15 PM 48.6°F9.2°C 32.5°F0.3°C 58% 8.7 mph W14.0 kmh W 21.7 mph34.9 kmh 29.51 in999.3 mb 0.00 in0.0 mm 0.00 in0.0 mm 0.25 in6.4 mm
01:35 PM 48.6°F9.2°C 32.9°F0.5°C 59% 9.8 mph WSW15.8 kmh WSW 18.1 mph29.1 kmh 29.52 in999.7 mb 0.00 in0.0 mm 0.00 in0.0 mm 0.25 in6.4 mm
01:55 PM 48.7°F9.3°C 33.1°F0.6°C 59% 10.5 mph W16.9 kmh W 23.0 mph37.0 kmh 29.53 in1000.0 mb 0.00 in0.0 mm 0.00 in0.0 mm 0.25 in6.4 mm
02:07 PM 49.1°F9.5°C 33.8°F1.0°C 60% 9.4 mph WSW15.1 kmh WSW 23.7 mph38.1 kmh 29.54 in1000.3 mb 0.00 in0.0 mm 0.00 in0.0 mm 0.25 in6.4 mm
02:28 PM 49.1°F9.5°C 33.8°F1.0°C 60% 9.4 mph W15.1 kmh W 18.6 mph29.9 kmh 29.54 in1000.3 mb 0.00 in0.0 mm 0.00 in0.0 mm 0.25 in6.4 mm
02:48 PM 49.5°F9.7°C 34.2°F1.2°C 60% 8.7 mph W14.0 kmh W 18.1 mph29.1 kmh 29.56 in1001.0 mb 0.00 in0.0 mm 0.00 in0.0 mm 0.25 in6.4 mm
03:08 PM 49.5°F9.7°C 34.5°F1.4°C 61% 8.7 mph W14.0 kmh W 16.8 mph27.0 kmh 29.57 in1001.4 mb 0.00 in0.0 mm 0.00 in0.0 mm 0.25 in6.4 mm
03:28 PM 49.5°F9.7°C 34.5°F1.4°C 61% 9.4 mph WSW15.1 kmh WSW 20.6 mph33.2 kmh 29.58 in1001.7 mb 0.00 in0.0 mm 0.00 in0.0 mm 0.25 in6.4 mm
03:49 PM 49.3°F9.6°C 34.3°F1.3°C 61% 8.1 mph W13.0 kmh W 16.1 mph25.9 kmh 29.58 in1001.7 mb 0.00 in0.0 mm 0.00 in0.0 mm 0.25 in6.4 mm
04:08 PM 49.3°F9.6°C 34.3°F1.3°C 61% 8.1 mph W13.0 kmh W 16.8 mph27.0 kmh 29.59 in1002.0 mb 0.00 in0.0 mm 0.00 in0.0 mm 0.25 in6.4 mm
04:29 PM 48.9°F9.4°C 34.5°F1.4°C 62% 8.1 mph WSW13.0 kmh WSW 17.4 mph28.0 kmh 29.60 in1002.4 mb 0.00 in0.0 mm 0.00 in0.0 mm 0.25 in6.4 mm
04:55 PM 48.9°F9.4°C 34.5°F1.4°C 62% 8.1 mph WSW13.0 kmh WSW 16.8 mph27.0 kmh 29.61 in1002.7 mb 0.00 in0.0 mm 0.00 in0.0 mm 0.25 in6.4 mm
05:15 PM 48.6°F9.2°C 34.2°F1.2°C 62% 9.4 mph WSW15.1 kmh WSW 21.7 mph34.9 kmh 29.61 in1002.7 mb 0.00 in0.0 mm 0.00 in0.0 mm 0.25 in6.4 mm
05:35 PM 48.4°F9.1°C 34.3°F1.3°C 63% 5.6 mph WSW9.0 kmh WSW 13.0 mph20.9 kmh 29.61 in1002.7 mb 0.00 in0.0 mm 0.00 in0.0 mm 0.25 in6.4 mm
05:55 PM 48.2°F9.0°C 34.2°F1.2°C 63% 6.9 mph WSW11.1 kmh WSW 15.4 mph24.8 kmh 29.62 in1003.0 mb 0.00 in0.0 mm 0.00 in0.0 mm 0.25 in6.4 mm
06:15 PM 48.0°F8.9°C 34.3°F1.3°C 64% 7.4 mph W11.9 kmh W 15.4 mph24.8 kmh 29.62 in1003.0 mb 0.00 in0.0 mm 0.00 in0.0 mm 0.25 in6.4 mm
06:21 PM 47.7°F8.7°C 34.0°F1.1°C 64% 7.4 mph WSW11.9 kmh WSW 17.4 mph28.0 kmh 29.62 in1003.0 mb 0.00 in0.0 mm 0.00 in0.0 mm 0.25 in6.4 mm
06:41 PM 47.7°F8.7°C 33.6°F0.9°C 63% 7.4 mph WSW11.9 kmh WSW 15.0 mph24.1 kmh 29.62 in1003.0 mb 0.00 in0.0 mm 0.00 in0.0 mm 0.25 in6.4 mm
07:01 PM 47.5°F8.6°C 33.4°F0.8°C 63% 8.1 mph WSW13.0 kmh WSW 15.4 mph24.8 kmh 29.62 in1003.0 mb 0.00 in0.0 mm 0.00 in0.0 mm 0.25 in6.4 mm
07:23 PM 47.5°F8.6°C 33.4°F0.8°C 63% 7.4 mph WSW11.9 kmh WSW 15.0 mph24.1 kmh 29.62 in1003.0 mb 0.00 in0.0 mm 0.00 in0.0 mm 0.25 in6.4 mm
07:44 PM 47.7°F8.7°C 33.6°F0.9°C 63% 7.4 mph WSW11.9 kmh WSW 21.0 mph33.8 kmh 29.63 in1003.4 mb 0.00 in0.0 mm 0.00 in0.0 mm 0.25 in6.4 mm